createdAt,value
2023-05-05T00:00:34.637Z,13.72
2023-05-05T00:05:36.342Z,13.67
2023-05-05T00:10:37.895Z,13.67
2023-05-05T00:15:41.757Z,13.65
2023-05-05T00:20:44.072Z,13.68
2023-05-05T00:25:45.705Z,13.71
2023-05-05T00:30:47.269Z,13.70
2023-05-05T00:35:48.875Z,13.66
2023-05-05T00:40:50.585Z,13.68
2023-05-05T00:46:01.136Z,13.65
2023-05-05T00:51:02.734Z,13.61
2023-05-05T00:56:04.617Z,13.64
2023-05-05T01:01:06.211Z,13.63
2023-05-05T01:06:15.627Z,13.64
2023-05-05T01:11:31.073Z,13.67
2023-05-05T01:16:35.974Z,13.67
2023-05-05T01:21:41.205Z,13.65
2023-05-05T01:27:20.114Z,13.61
2023-05-05T01:32:27.141Z,13.64
2023-05-05T01:37:37.911Z,13.61
2023-05-05T01:42:42.309Z,13.52
2023-05-05T01:47:45.444Z,13.39
2023-05-05T01:52:47.785Z,13.26
2023-05-05T01:57:50.447Z,13.12
2023-05-05T02:02:54.762Z,13.10
2023-05-05T02:07:59.676Z,12.94
2023-05-05T02:13:02.866Z,12.74
2023-05-05T02:18:06.748Z,12.56
2023-05-05T02:23:08.750Z,12.44
2023-05-05T02:28:17.037Z,12.18
2023-05-05T02:33:21.261Z,12.13
2023-05-05T02:38:27.559Z,12.07
2023-05-05T02:43:31.537Z,12.08
2023-05-05T02:48:33.140Z,12.09
2023-05-05T02:53:34.916Z,12.05
2023-05-05T02:59:05.336Z,12.04
2023-05-05T03:04:12.924Z,11.94
2023-05-05T03:09:21.314Z,11.88
2023-05-05T03:14:24.780Z,11.77
2023-05-05T03:19:27.715Z,11.71
2023-05-05T03:24:29.306Z,11.65
2023-05-05T03:29:31.021Z,11.63
2023-05-05T03:34:32.561Z,11.59
2023-05-05T03:39:34.085Z,11.56
2023-05-05T03:44:35.682Z,11.49
2023-05-05T03:49:37.885Z,11.41
2023-05-05T03:54:39.419Z,11.30
2023-05-05T03:59:40.964Z,11.27
2023-05-05T04:04:42.594Z,11.23
2023-05-05T04:09:47.033Z,11.16
2023-05-05T04:14:48.572Z,11.10
2023-05-05T04:19:50.172Z,11.04
2023-05-05T04:24:51.761Z,11.01
2023-05-05T04:29:53.278Z,11.02
2023-05-05T04:34:54.753Z,11.02
2023-05-05T04:39:56.244Z,11.12
2023-05-05T04:44:57.704Z,11.28
2023-05-05T04:49:59.260Z,11.44
2023-05-05T04:55:01.169Z,11.58
2023-05-05T05:00:05.120Z,11.71
2023-05-05T05:05:07.177Z,11.75
2023-05-05T05:10:09.378Z,11.87
2023-05-05T05:15:13.037Z,12.03
2023-05-05T05:20:14.497Z,12.21
2023-05-05T05:25:16.072Z,12.43
2023-05-05T05:30:17.569Z,12.61
2023-05-05T05:35:19.130Z,12.79
2023-05-05T05:40:20.792Z,13.07
2023-05-05T05:45:22.358Z,13.27
2023-05-05T05:50:27.024Z,13.41
2023-05-05T05:55:28.578Z,13.51
2023-05-05T06:00:30.129Z,14.09
2023-05-05T06:05:32.272Z,14.70
2023-05-05T06:10:34.768Z,14.80
2023-05-05T06:15:36.546Z,14.99
2023-05-05T06:20:38.171Z,15.03
2023-05-05T06:25:39.701Z,14.94
2023-05-05T06:30:42.454Z,15.28
2023-05-05T06:35:43.976Z,15.49
2023-05-05T06:40:48.569Z,16.35
2023-05-05T06:45:50.220Z,16.40
2023-05-05T06:50:51.920Z,16.62
2023-05-05T06:55:53.443Z,17.47
2023-05-05T07:00:55.048Z,17.02
2023-05-05T07:05:56.554Z,16.85
2023-05-05T07:10:58.134Z,17.01
2023-05-05T07:15:59.859Z,16.93
2023-05-05T07:21:01.664Z,16.98
2023-05-05T07:26:03.437Z,16.87
2023-05-05T07:31:05.101Z,16.84
2023-05-05T07:36:06.721Z,16.96
2023-05-05T07:41:08.990Z,16.92
2023-05-05T07:46:10.584Z,16.92
2023-05-05T07:51:12.135Z,16.96
2023-05-05T07:56:13.739Z,17.10
2023-05-05T08:01:15.817Z,17.30
2023-05-05T08:06:21.854Z,17.45
2023-05-05T08:11:23.402Z,17.57
2023-05-05T08:16:25.034Z,17.73
2023-05-05T08:21:27.635Z,17.88
2023-05-05T08:26:29.188Z,18.06
2023-05-05T08:31:35.209Z,18.16
2023-05-05T08:36:36.844Z,18.44
2023-05-05T08:41:38.323Z,18.71
2023-05-05T08:46:41.600Z,18.81
2023-05-05T08:51:45.419Z,18.92
2023-05-05T08:56:49.600Z,18.93
2023-05-05T09:01:52.885Z,18.85
2023-05-05T09:06:57.862Z,18.82
2023-05-05T09:12:00.266Z,18.84
2023-05-05T09:17:03.186Z,18.67
2023-05-05T09:22:04.750Z,18.52
2023-05-05T09:27:21.822Z,18.38
2023-05-05T09:32:24.439Z,18.24
2023-05-05T09:37:31.837Z,18.32
2023-05-05T09:42:33.453Z,18.46
2023-05-05T09:47:36.445Z,18.73
2023-05-05T09:52:38.100Z,19.04
2023-05-05T09:57:39.651Z,19.37
2023-05-05T10:02:41.929Z,19.68
2023-05-05T10:07:46.028Z,19.75
2023-05-05T10:12:49.466Z,19.48
2023-05-05T10:18:06.048Z,19.24
2023-05-05T10:23:14.415Z,19.03
2023-05-05T10:28:39.720Z,18.89
2023-05-05T10:33:52.108Z,18.78
2023-05-05T10:38:57.831Z,18.58
2023-05-05T10:44:02.040Z,18.11
2023-05-05T10:49:18.102Z,17.29
2023-05-05T10:54:38.304Z,17.02
2023-05-05T10:59:41.437Z,16.87
2023-05-05T11:04:43.006Z,16.73
2023-05-05T11:10:07.738Z,16.36
2023-05-05T11:15:28.036Z,16.43
2023-05-05T11:20:36.054Z,16.39
2023-05-05T11:25:38.873Z,16.31
2023-05-05T11:30:58.818Z,16.32
2023-05-05T11:36:06.777Z,16.23
2023-05-05T11:41:30.350Z,16.07
2023-05-05T11:46:31.942Z,16.22
2023-05-05T11:51:33.432Z,16.26
2023-05-05T11:56:34.916Z,16.17
2023-05-05T12:01:41.164Z,16.17
2023-05-05T12:06:43.329Z,16.07
2023-05-05T12:11:58.634Z,16.03
2023-05-05T12:17:09.492Z,15.61
2023-05-05T12:22:18.464Z,15.46
2023-05-05T12:27:19.948Z,15.43
2023-05-05T12:32:26.093Z,15.25
2023-05-05T12:37:27.727Z,15.05
2023-05-05T12:42:29.275Z,15.04
2023-05-05T12:47:34.979Z,14.87
2023-05-05T12:52:44.612Z,14.74
2023-05-05T12:58:01.734Z,14.76
2023-05-05T13:03:04.728Z,14.74
2023-05-05T13:08:06.354Z,14.63
2023-05-05T13:13:08.755Z,14.65
2023-05-05T13:18:10.837Z,14.62
2023-05-05T13:23:12.374Z,14.62
2023-05-05T13:28:13.841Z,14.53
2023-05-05T13:33:15.390Z,14.46
2023-05-05T13:38:17.094Z,14.37
2023-05-05T13:43:19.589Z,14.23
2023-05-05T13:48:21.074Z,14.20
2023-05-05T13:53:22.595Z,14.07
2023-05-05T13:58:24.145Z,14.11
2023-05-05T14:03:25.884Z,14.09
2023-05-05T14:08:27.358Z,14.07
2023-05-05T14:13:29.090Z,14.08
2023-05-05T14:18:30.745Z,14.15
2023-05-05T14:23:32.607Z,14.17
2023-05-05T14:28:34.225Z,14.20
2023-05-05T14:33:35.966Z,14.22
2023-05-05T14:38:37.434Z,14.18
2023-05-05T14:43:39.112Z,14.22
2023-05-05T14:48:40.741Z,14.25
2023-05-05T14:53:42.285Z,14.32
2023-05-05T14:58:43.869Z,14.26
2023-05-05T15:03:45.581Z,14.19
2023-05-05T15:08:47.286Z,14.22
2023-05-05T15:13:48.811Z,14.29
2023-05-05T15:18:50.651Z,14.35
2023-05-05T15:23:52.186Z,14.41
2023-05-05T15:28:53.695Z,14.45
2023-05-05T15:33:55.158Z,14.49
2023-05-05T15:38:56.761Z,14.54
2023-05-05T15:43:58.373Z,14.59
2023-05-05T15:48:59.989Z,14.54
2023-05-05T15:54:01.645Z,14.56
2023-05-05T15:59:03.358Z,14.73
2023-05-05T16:04:04.968Z,14.81
2023-05-05T16:09:06.501Z,14.84
2023-05-05T16:14:07.999Z,14.77
2023-05-05T16:19:09.472Z,14.59
2023-05-05T16:24:15.937Z,14.39
2023-05-05T16:29:17.512Z,14.32
2023-05-05T16:34:19.084Z,14.35
2023-05-05T16:39:20.587Z,14.34
2023-05-05T16:44:22.120Z,14.42
2023-05-05T16:49:24.335Z,14.46
2023-05-05T16:54:25.844Z,14.52
2023-05-05T16:59:27.857Z,14.63
2023-05-05T17:04:30.359Z,14.68
2023-05-05T17:09:31.908Z,14.70
2023-05-05T17:14:33.661Z,14.72
2023-05-05T17:19:35.441Z,14.68
2023-05-05T17:24:37.401Z,14.59
2023-05-05T17:29:40.866Z,14.65
2023-05-05T17:34:42.436Z,14.63
2023-05-05T17:39:44.011Z,14.63
2023-05-05T17:44:47.519Z,14.54
2023-05-05T17:49:49.211Z,14.42
2023-05-05T17:54:50.867Z,14.38
2023-05-05T17:59:53.828Z,14.37
2023-05-05T18:04:55.566Z,14.26
2023-05-05T18:09:57.179Z,14.26
2023-05-05T18:14:58.719Z,14.17
2023-05-05T18:20:00.295Z,14.11
2023-05-05T18:25:02.802Z,14.05
2023-05-05T18:30:05.003Z,14.02
2023-05-05T18:35:07.393Z,13.99
2023-05-05T18:40:10.149Z,13.90
2023-05-05T18:45:11.844Z,13.78
2023-05-05T18:50:13.559Z,13.70
2023-05-05T18:55:15.106Z,13.61
2023-05-05T19:00:19.759Z,13.58
2023-05-05T19:05:21.525Z,13.50
2023-05-05T19:10:23.103Z,13.44
2023-05-05T19:15:25.187Z,13.40
2023-05-05T19:20:26.744Z,13.28
2023-05-05T19:25:28.280Z,13.20
2023-05-05T19:30:29.871Z,13.06
2023-05-05T19:35:31.450Z,13.02
2023-05-05T19:40:32.928Z,13.02
2023-05-05T19:45:34.838Z,12.96
2023-05-05T19:50:36.557Z,12.91
2023-05-05T19:55:38.276Z,12.90
2023-05-05T20:00:40.283Z,12.93
2023-05-05T20:05:42.155Z,12.90
2023-05-05T20:10:43.672Z,12.86
2023-05-05T20:15:45.387Z,12.84
2023-05-05T20:20:46.903Z,12.81
2023-05-05T20:25:48.627Z,12.75
2023-05-05T20:30:50.157Z,12.70
2023-05-05T20:35:51.645Z,12.68
2023-05-05T20:40:53.386Z,12.66
2023-05-05T20:45:55.136Z,12.68
2023-05-05T20:50:58.755Z,12.61
2023-05-05T20:56:00.822Z,12.59
2023-05-05T21:01:03.787Z,12.62
2023-05-05T21:06:05.487Z,12.76
2023-05-05T21:11:09.986Z,12.88
2023-05-05T21:16:11.716Z,12.97
2023-05-05T21:21:14.398Z,12.96
2023-05-05T21:26:16.073Z,12.86
2023-05-05T21:31:21.925Z,12.82
2023-05-05T21:36:24.808Z,12.73
2023-05-05T21:41:26.899Z,12.71
2023-05-05T21:46:28.451Z,12.73
2023-05-05T21:51:29.976Z,12.74
2023-05-05T21:56:32.253Z,12.77
2023-05-05T22:01:36.179Z,12.75
2023-05-05T22:06:37.694Z,12.75
2023-05-05T22:11:39.300Z,12.78
2023-05-05T22:16:40.938Z,12.75
2023-05-05T22:21:42.526Z,12.78
2023-05-05T22:26:44.233Z,12.76
2023-05-05T22:31:45.778Z,12.71
2023-05-05T22:36:48.606Z,12.66
2023-05-05T22:41:50.168Z,12.54
2023-05-05T22:46:51.669Z,12.48
2023-05-05T22:51:53.588Z,12.39
2023-05-05T22:56:55.112Z,12.34
2023-05-05T23:01:56.683Z,12.26
2023-05-05T23:06:58.174Z,12.16
2023-05-05T23:11:59.699Z,12.09
2023-05-05T23:17:01.481Z,12.05
2023-05-05T23:22:04.056Z,11.98
2023-05-05T23:27:05.582Z,11.97
2023-05-05T23:32:08.317Z,11.98
2023-05-05T23:37:09.877Z,11.91
2023-05-05T23:42:11.477Z,11.89
2023-05-05T23:47:13.006Z,11.92
2023-05-05T23:52:14.530Z,11.97
2023-05-05T23:57:16.436Z,11.98
